Time;durP1;ratioP1;P1;durP2;ratioP2;P2;SDS_P1;SDS_P2;PMS_P1;PMS_P2;Temp;Humidity;BMP_temperature;BMP_pressure;BME280_temperature;BME280_humidity;BME280_pressure;Samples;Min_cycle;Max_cycle;Signal;HPM_P1;HPM_P2
2022/02/08 00:00:55;;;;;;;27.77;6.57;;;;;;;;;;5106284;28;20056;-60
2022/02/08 00:03:22;;;;;;;27.73;7.15;;;;;;;;;;5107898;28;20575;-61
2022/02/08 00:06:03;;;;;;;31.30;8.02;;;;;;;;;;5088064;28;20055;-61
2022/02/08 00:08:30;;;;;;;26.25;8.02;;;;;;;;;;5087260;28;20045;-61
2022/02/08 00:10:56;;;;;;;30.63;10.70;;;;;;;;;;5087323;28;20072;-61
2022/02/08 00:13:22;;;;;;;41.92;9.70;;;;;;;;;;5087069;28;20074;-62
2022/02/08 00:15:48;;;;;;;27.33;6.45;;;;;;;;;;5087555;28;20093;-62
2022/02/08 00:18:14;;;;;;;43.72;9.50;;;;;;;;;;5087031;28;20089;-61
2022/02/08 00:20:40;;;;;;;33.35;9.10;;;;;;;;;;5087307;28;20636;-62
2022/02/08 00:23:06;;;;;;;31.27;7.85;;;;;;;;;;5086848;28;20083;-62
2022/02/08 00:25:32;;;;;;;34.92;8.40;;;;;;;;;;5089279;28;20105;-62
2022/02/08 00:27:59;;;;;;;26.63;9.63;;;;;;;;;;5086696;28;20716;-62
2022/02/08 00:30:25;;;;;;;30.38;8.23;;;;;;;;;;5086875;28;20105;-62
2022/02/08 00:32:51;;;;;;;36.70;10.07;;;;;;;;;;5086558;28;20127;-62
2022/02/08 00:35:17;;;;;;;29.00;8.65;;;;;;;;;;5089793;28;20048;-62
2022/02/08 00:37:43;;;;;;;29.20;9.27;;;;;;;;;;5105560;28;20052;-62
2022/02/08 00:40:09;;;;;;;29.42;8.00;;;;;;;;;;5102588;28;20087;-62
2022/02/08 00:42:36;;;;;;;33.65;8.52;;;;;;;;;;5086454;28;20515;-62
2022/02/08 00:47:55;;;;;;;41.95;10.27;;;;;;;;;;5102027;28;20573;-63
2022/02/08 00:50:21;;;;;;;35.40;9.15;;;;;;;;;;5086231;28;20053;-63
2022/02/08 00:52:47;;;;;;;34.08;10.10;;;;;;;;;;5085718;28;20124;-63
2022/02/08 00:55:14;;;;;;;37.67;10.07;;;;;;;;;;5087825;28;20067;-63
2022/02/08 00:57:40;;;;;;;43.13;10.63;;;;;;;;;;5106313;28;20128;-63
2022/02/08 01:00:07;;;;;;;39.25;9.27;;;;;;;;;;5106238;28;20115;-63
2022/02/08 01:02:34;;;;;;;38.50;11.05;;;;;;;;;;5092357;28;20112;-63
2022/02/08 01:05:03;;;;;;;44.75;10.05;;;;;;;;;;5086114;28;20124;-63
2022/02/08 01:07:29;;;;;;;24.55;8.25;;;;;;;;;;5085537;28;20126;-63
2022/02/08 01:09:59;;;;;;;40.75;9.68;;;;;;;;;;5086222;28;20105;-63
2022/02/08 01:12:26;;;;;;;44.53;11.35;;;;;;;;;;5085351;28;20064;-63
2022/02/08 01:14:54;;;;;;;48.38;11.70;;;;;;;;;;5085233;28;20052;-63
2022/02/08 01:17:21;;;;;;;36.55;10.05;;;;;;;;;;5085740;28;20132;-63
2022/02/08 01:19:53;;;;;;;46.40;11.45;;;;;;;;;;5085606;28;20048;-65
2022/02/08 01:22:19;;;;;;;33.70;10.55;;;;;;;;;;5085064;28;20044;-63
2022/02/08 01:24:47;;;;;;;32.28;9.85;;;;;;;;;;5085694;28;20048;-64
2022/02/08 01:27:13;;;;;;;;;;;;;;;;;;5086530;28;20052;-63
2022/02/08 01:35:24;;;;;;;44.35;10.27;;;;;;;;;;5085368;28;20041;-64
2022/02/08 01:38:00;;;;;;;28.60;9.68;;;;;;;;;;5064632;28;20088;-63
2022/02/08 01:48:03;;;;;;;21.95;8.45;;;;;;;;;;5085050;28;20112;-63
2022/02/08 01:50:29;;;;;;;29.27;10.60;;;;;;;;;;5084207;28;20080;-63
2022/02/08 01:52:55;;;;;;;27.52;9.65;;;;;;;;;;5085325;28;20106;-63
2022/02/08 01:55:22;;;;;;;25.02;10.23;;;;;;;;;;5105452;28;20172;-63
2022/02/08 01:57:48;;;;;;;20.13;9.63;;;;;;;;;;5103804;28;20142;-62
2022/02/08 02:00:15;;;;;;;19.85;9.75;;;;;;;;;;5088482;28;20111;-63
2022/02/08 02:02:42;;;;;;;26.45;10.43;;;;;;;;;;5083226;28;20055;-61
2022/02/08 02:05:08;;;;;;;23.00;10.82;;;;;;;;;;5085427;28;20083;-62
2022/02/08 02:07:35;;;;;;;22.70;11.30;;;;;;;;;;5082896;28;20048;-62
2022/02/08 02:10:01;;;;;;;20.67;10.60;;;;;;;;;;5084915;28;20040;-62
2022/02/08 02:12:27;;;;;;;29.10;12.20;;;;;;;;;;5084603;28;20467;-62
2022/02/08 02:14:55;;;;;;;31.48;12.75;;;;;;;;;;5084577;28;20048;-62
2022/02/08 02:17:21;;;;;;;36.45;13.38;;;;;;;;;;5084562;28;20049;-63
2022/02/08 02:19:47;;;;;;;33.67;14.05;;;;;;;;;;5097171;28;20040;-62
2022/02/08 02:22:14;;;;;;;39.45;15.50;;;;;;;;;;5102435;28;20101;-62
2022/02/08 02:24:41;;;;;;;34.90;14.65;;;;;;;;;;5104885;28;20055;-62
2022/02/08 02:27:09;;;;;;;35.53;15.93;;;;;;;;;;5104728;28;20082;-62
2022/02/08 02:29:35;;;;;;;41.65;16.02;;;;;;;;;;5094031;28;20052;-63
2022/02/08 02:32:02;;;;;;;35.45;16.00;;;;;;;;;;5084329;28;20048;-63
2022/02/08 02:34:28;;;;;;;36.88;14.73;;;;;;;;;;5087690;28;20048;-63
2022/02/08 02:36:55;;;;;;;33.95;15.82;;;;;;;;;;5103948;28;20138;-62
2022/02/08 02:39:22;;;;;;;36.55;15.52;;;;;;;;;;5065696;28;20514;-62
2022/02/08 02:41:48;;;;;;;37.25;18.60;;;;;;;;;;5064203;28;20095;-62
2022/02/08 02:44:21;;;;;;;41.75;16.77;;;;;;;;;;5064076;28;20072;-62
2022/02/08 02:46:47;;;;;;;42.20;17.05;;;;;;;;;;5064212;28;20049;-62
2022/02/08 02:49:13;;;;;;;44.95;16.63;;;;;;;;;;5070167;28;20113;-62
2022/02/08 02:51:40;;;;;;;45.70;15.27;;;;;;;;;;5087506;28;20480;-61
2022/02/08 02:54:19;;;;;;;45.17;15.45;;;;;;;;;;5084180;28;20048;-62
2022/02/08 02:56:46;;;;;;;45.72;16.25;;;;;;;;;;5083504;28;20037;-61
2022/02/08 02:59:12;;;;;;;54.83;17.33;;;;;;;;;;5083562;28;20044;-61
2022/02/08 03:18:45;;;;;;;56.78;16.17;;;;;;;;;;5015605;28;20052;-61
2022/02/08 03:21:12;;;;;;;39.72;13.18;;;;;;;;;;5008959;28;20089;-61
2022/02/08 03:23:38;;;;;;;56.58;13.93;;;;;;;;;;5002328;28;20099;-61
2022/02/08 03:26:05;;;;;;;51.55;13.63;;;;;;;;;;5001537;28;20054;-61
2022/02/08 03:28:31;;;;;;;46.38;11.93;;;;;;;;;;5009455;28;20047;-61
2022/02/08 03:30:58;;;;;;;45.55;12.23;;;;;;;;;;5001673;28;20046;-61
2022/02/08 03:33:25;;;;;;;40.38;11.95;;;;;;;;;;5001746;28;20046;-62
2022/02/08 03:35:54;;;;;;;36.78;10.20;;;;;;;;;;5001266;28;20053;-61
2022/02/08 03:38:26;;;;;;;50.45;12.55;;;;;;;;;;5026773;28;20063;-61
2022/02/08 03:40:53;;;;;;;39.80;12.13;;;;;;;;;;5063776;28;20052;-62
2022/02/08 03:45:49;;;;;;;50.60;12.30;;;;;;;;;;5103637;28;20052;-62
2022/02/08 03:48:17;;;;;;;31.00;10.90;;;;;;;;;;5103950;28;20036;-62
2022/02/08 03:50:49;;;;;;;29.73;10.52;;;;;;;;;;5103441;28;20044;-61
2022/02/08 03:53:15;;;;;;;26.25;8.95;;;;;;;;;;5103946;28;20105;-61
2022/02/08 03:55:41;;;;;;;25.02;9.77;;;;;;;;;;5104251;28;20055;-61
2022/02/08 03:58:07;;;;;;;27.27;10.07;;;;;;;;;;5086203;28;20048;-61
2022/02/08 04:00:43;;;;;;;36.05;10.02;;;;;;;;;;5083018;28;20138;-61
2022/02/08 04:03:09;;;;;;;31.88;9.70;;;;;;;;;;5083871;28;20127;-62
2022/02/08 04:05:41;;;;;;;31.65;8.13;;;;;;;;;;5083610;28;20037;-62
2022/02/08 04:08:10;;;;;;;26.77;8.18;;;;;;;;;;5082965;28;20052;-63
2022/02/08 04:10:36;;;;;;;33.17;9.27;;;;;;;;;;5083201;28;20052;-62
2022/02/08 04:13:23;;;;;;;42.88;10.35;;;;;;;;;;5094355;28;20044;-62
2022/02/08 04:18:41;;;;;;;26.13;8.02;;;;;;;;;;5086877;28;20059;-62
2022/02/08 04:47:14;;;;;;;28.70;6.85;;;;;;;;;;5086339;28;20071;-62
2022/02/08 04:49:40;;;;;;;33.25;7.22;;;;;;;;;;5086538;28;20496;-62
2022/02/08 04:52:09;;;;;;;32.20;5.65;;;;;;;;;;5085692;28;20052;-62
2022/02/08 05:45:12;;;;;;;20.92;3.53;;;;;;;;;;5064991;28;20091;-62
2022/02/08 05:47:42;;;;;;;13.02;3.05;;;;;;;;;;5064875;28;20080;-62
2022/02/08 05:50:38;;;;;;;24.70;4.53;;;;;;;;;;5100137;28;20074;-62
2022/02/08 05:53:14;;;;;;;12.70;3.38;;;;;;;;;;5095955;28;20049;-62
2022/02/08 05:55:40;;;;;;;13.57;3.17;;;;;;;;;;5089558;28;20514;-62
2022/02/08 05:58:06;;;;;;;14.48;3.58;;;;;;;;;;5105038;28;20129;-62
2022/02/08 06:00:32;;;;;;;18.50;3.53;;;;;;;;;;5101902;28;20040;-61
2022/02/08 06:03:05;;;;;;;22.58;3.47;;;;;;;;;;5085277;28;20112;-63
2022/02/08 06:05:31;;;;;;;16.25;3.63;;;;;;;;;;5084894;28;20076;-62
2022/02/08 06:07:58;;;;;;;15.50;4.57;;;;;;;;;;5101927;28;20062;-62
2022/02/08 06:10:24;;;;;;;12.30;2.55;;;;;;;;;;5105278;28;20048;-61
2022/02/08 06:12:52;;;;;;;20.90;3.65;;;;;;;;;;5084848;28;20047;-61
2022/02/08 06:15:22;;;;;;;13.80;3.70;;;;;;;;;;5084466;28;20507;-61
2022/02/08 06:17:49;;;;;;;16.83;4.03;;;;;;;;;;5083380;28;20059;-61
2022/02/08 06:20:16;;;;;;;16.08;4.00;;;;;;;;;;5085066;28;20041;-62
2022/02/08 06:22:44;;;;;;;12.25;3.25;;;;;;;;;;5084233;28;20044;-62
2022/02/08 06:25:12;;;;;;;;;;;;;;;;;;5085274;28;20052;-62
2022/02/08 06:27:40;;;;;;;11.38;3.17;;;;;;;;;;5084666;28;19928;-61
2022/02/08 06:30:06;;;;;;;14.13;2.80;;;;;;;;;;5084577;28;20045;-61
2022/02/08 06:32:33;;;;;;;15.38;3.20;;;;;;;;;;5084072;28;20040;-61
2022/02/08 06:35:02;;;;;;;15.57;2.90;;;;;;;;;;5084229;28;20096;-61
2022/02/08 06:37:32;;;;;;;11.00;3.28;;;;;;;;;;5083685;28;20090;-62
2022/02/08 06:39:58;;;;;;;17.42;3.28;;;;;;;;;;5084511;28;20169;-61
2022/02/08 06:42:25;;;;;;;13.70;2.67;;;;;;;;;;5084146;28;20051;-61
2022/02/08 06:44:51;;;;;;;13.18;3.28;;;;;;;;;;5083849;28;20391;-61
2022/02/08 06:47:17;;;;;;;14.00;3.10;;;;;;;;;;5112270;28;20075;-62
2022/02/08 06:49:43;;;;;;;15.55;3.10;;;;;;;;;;5083644;28;20060;-61
2022/02/08 06:52:09;;;;;;;10.63;2.90;;;;;;;;;;5083997;28;20504;-62
2022/02/08 06:54:35;;;;;;;21.48;4.50;;;;;;;;;;5096453;28;20040;-62
2022/02/08 06:57:01;;;;;;;14.75;2.88;;;;;;;;;;5096069;28;20044;-62
2022/02/08 06:59:30;;;;;;;19.30;3.20;;;;;;;;;;5090054;28;20048;-62
2022/02/08 07:01:56;;;;;;;15.15;3.00;;;;;;;;;;5092528;28;20043;-63
2022/02/08 07:04:22;;;;;;;18.45;3.42;;;;;;;;;;5084182;28;20064;-61
2022/02/08 07:06:48;;;;;;;16.90;3.72;;;;;;;;;;5087903;28;20048;-61
2022/02/08 07:09:15;;;;;;;11.35;2.78;;;;;;;;;;5088162;28;20048;-62
2022/02/08 07:11:45;;;;;;;11.70;2.40;;;;;;;;;;5085240;28;20036;-62
2022/02/08 07:14:11;;;;;;;14.98;3.33;;;;;;;;;;5083959;28;20052;-62
2022/02/08 07:16:38;;;;;;;14.85;2.60;;;;;;;;;;5089963;28;20044;-62
2022/02/08 07:19:04;;;;;;;23.63;3.65;;;;;;;;;;5104537;28;20415;-61
2022/02/08 07:21:30;;;;;;;19.00;4.32;;;;;;;;;;5093563;28;20044;-61
2022/02/08 07:23:56;;;;;;;18.55;2.83;;;;;;;;;;5085391;28;20045;-61
2022/02/08 07:26:23;;;;;;;12.40;2.67;;;;;;;;;;5089862;28;20036;-61
2022/02/08 07:28:50;;;;;;;17.83;3.35;;;;;;;;;;5084602;28;20114;-61
2022/02/08 07:31:25;;;;;;;12.70;2.83;;;;;;;;;;5095499;28;20044;-61
2022/02/08 07:34:11;;;;;;;11.25;2.50;;;;;;;;;;5084194;28;20045;-61
2022/02/08 07:36:56;;;;;;;13.60;4.10;;;;;;;;;;5092719;28;20056;-61
2022/02/08 07:39:26;;;;;;;15.52;2.78;;;;;;;;;;5104405;28;20039;-61
2022/02/08 07:41:52;;;;;;;13.27;2.75;;;;;;;;;;5104344;28;20068;-61
2022/02/08 07:44:19;;;;;;;12.82;3.08;;;;;;;;;;5098199;28;20556;-61
2022/02/08 07:46:45;;;;;;;17.75;3.33;;;;;;;;;;5085001;28;20056;-62
2022/02/08 07:49:13;;;;;;;21.02;3.00;;;;;;;;;;5087830;28;20504;-61
2022/02/08 07:51:40;;;;;;;17.98;3.38;;;;;;;;;;5087307;28;20098;-61
2022/02/08 07:54:07;;;;;;;17.95;3.35;;;;;;;;;;5087698;28;20041;-61
2022/02/08 07:56:33;;;;;;;14.57;2.60;;;;;;;;;;5086704;28;20070;-61
2022/02/08 07:59:00;;;;;;;16.20;2.25;;;;;;;;;;5087013;28;20066;-61
2022/02/08 08:01:27;;;;;;;13.55;2.58;;;;;;;;;;5087626;28;20049;-61
2022/02/08 08:03:53;;;;;;;15.15;4.05;;;;;;;;;;5086624;28;20045;-62
2022/02/08 08:06:20;;;;;;;16.23;2.58;;;;;;;;;;5096193;28;20121;-61
2022/02/08 08:08:47;;;;;;;17.23;2.45;;;;;;;;;;5101654;28;20650;-62
2022/02/08 08:11:21;;;;;;;12.32;3.45;;;;;;;;;;5087193;28;20067;-62
2022/02/08 08:13:50;;;;;;;12.63;3.55;;;;;;;;;;5086934;28;20629;-61
2022/02/08 08:19:37;;;;;;;16.65;3.47;;;;;;;;;;5075822;28;20056;-61
2022/02/08 08:21:51;;;;;;;15.38;2.15;;;;;;;;;;5089385;28;20048;-63
2022/02/08 08:24:17;;;;;;;11.13;2.80;;;;;;;;;;5086599;28;20056;-62
2022/02/08 08:26:44;;;;;;;11.48;2.72;;;;;;;;;;5085583;28;20074;-62
2022/02/08 08:29:10;;;;;;;16.48;2.83;;;;;;;;;;5086702;28;20071;-61
2022/02/08 08:31:36;;;;;;;17.08;3.42;;;;;;;;;;5086485;28;20097;-61
2022/02/08 08:34:03;;;;;;;14.38;2.42;;;;;;;;;;5087125;28;20040;-61
2022/02/08 08:36:30;;;;;;;14.52;3.08;;;;;;;;;;5101232;28;20487;-62
2022/02/08 08:38:56;;;;;;;11.88;2.42;;;;;;;;;;5107022;28;20056;-61
2022/02/08 08:41:33;;;;;;;15.20;3.63;;;;;;;;;;5106813;28;20066;-61
2022/02/08 08:49:34;;;;;;;11.57;3.25;;;;;;;;;;5105028;28;20048;-61
2022/02/08 08:52:00;;;;;;;17.85;3.60;;;;;;;;;;5085686;28;20044;-61
2022/02/08 08:54:27;;;;;;;18.77;3.53;;;;;;;;;;5086687;28;20044;-61
2022/02/08 08:56:53;;;;;;;16.92;2.63;;;;;;;;;;5085863;28;20108;-62
2022/02/08 08:59:20;;;;;;;15.65;3.47;;;;;;;;;;5085378;28;20041;-61
2022/02/08 09:01:48;;;;;;;15.15;3.28;;;;;;;;;;5101583;28;20076;-62
2022/02/08 09:04:18;;;;;;;15.05;2.60;;;;;;;;;;5087301;28;20087;-62
2022/02/08 09:06:45;;;;;;;19.67;3.17;;;;;;;;;;5101228;28;20055;-61
2022/02/08 09:09:14;;;;;;;9.80;2.92;;;;;;;;;;5086337;28;20051;-62
2022/02/08 09:11:54;;;;;;;15.70;2.75;;;;;;;;;;5085761;28;20085;-62
2022/02/08 09:14:26;;;;;;;17.35;3.60;;;;;;;;;;5086786;28;20044;-62
2022/02/08 09:29:50;;;;;;;22.77;3.30;;;;;;;;;;5094557;28;20122;-62
2022/02/08 09:32:20;;;;;;;15.65;2.97;;;;;;;;;;5105725;28;20316;-62
2022/02/08 09:34:48;;;;;;;18.02;3.15;;;;;;;;;;5105980;28;20535;-62
2022/02/08 09:37:15;;;;;;;17.73;3.00;;;;;;;;;;5104978;28;20056;-62
2022/02/08 09:39:43;;;;;;;17.67;2.47;;;;;;;;;;5105910;28;20051;-62
2022/02/08 09:42:09;;;;;;;16.73;2.92;;;;;;;;;;5104143;28;20547;-62
2022/02/08 09:44:37;;;;;;;17.27;3.22;;;;;;;;;;5085582;28;20052;-62
2022/02/08 09:47:05;;;;;;;;;;;;;;;;;;5085582;28;20045;-62
2022/02/08 09:49:32;;;;;;;9.13;2.10;;;;;;;;;;5085245;28;19982;-62
2022/02/08 09:52:00;;;;;;;12.60;2.45;;;;;;;;;;5084662;28;20044;-62
2022/02/08 09:54:27;;;;;;;12.00;2.42;;;;;;;;;;5085219;28;20047;-62
2022/02/08 09:56:53;;;;;;;12.82;3.10;;;;;;;;;;5085086;28;20063;-62
2022/02/08 09:59:19;;;;;;;17.20;2.63;;;;;;;;;;5104465;28;20044;-62
2022/02/08 10:01:56;;;;;;;14.95;2.72;;;;;;;;;;5084959;28;20454;-62
2022/02/08 10:04:23;;;;;;;14.80;2.95;;;;;;;;;;5084916;28;20100;-62
2022/02/08 10:06:49;;;;;;;16.15;3.15;;;;;;;;;;5083941;28;20070;-62
2022/02/08 10:09:15;;;;;;;10.27;2.80;;;;;;;;;;5084474;28;20037;-62
2022/02/08 10:11:45;;;;;;;10.70;2.80;;;;;;;;;;5084680;28;20041;-62
2022/02/08 10:22:37;;;;;;;14.73;2.97;;;;;;;;;;5064484;28;20083;-62
2022/02/08 10:25:04;;;;;;;11.45;2.97;;;;;;;;;;5084797;28;20170;-62
2022/02/08 10:27:44;;;;;;;21.05;3.65;;;;;;;;;;5099679;28;20100;-62
2022/02/08 10:38:49;;;;;;;15.88;2.90;;;;;;;;;;5072661;28;20415;-62
2022/02/08 10:41:19;;;;;;;18.40;2.85;;;;;;;;;;5081214;28;20052;-62
2022/02/08 10:43:57;;;;;;;9.00;2.25;;;;;;;;;;5084295;28;20071;-62
2022/02/08 10:46:23;;;;;;;12.70;3.00;;;;;;;;;;5081220;28;20048;-62
2022/02/08 10:49:10;;;;;;;16.80;2.63;;;;;;;;;;5083867;28;20104;-62
2022/02/08 10:51:53;;;;;;;14.45;2.10;;;;;;;;;;5082777;28;20420;-62
2022/02/08 10:54:38;;;;;;;25.73;3.55;;;;;;;;;;5082939;28;20074;-62
2022/02/08 10:57:11;;;;;;;14.85;3.28;;;;;;;;;;5083633;28;20051;-62
2022/02/08 10:59:53;;;;;;;12.80;2.80;;;;;;;;;;5083650;28;20044;-62
2022/02/08 11:02:31;;;;;;;14.88;3.42;;;;;;;;;;5082581;28;20049;-62
2022/02/08 11:05:13;;;;;;;27.90;2.55;;;;;;;;;;5084072;28;20131;-62
2022/02/08 11:10:29;;;;;;;14.38;3.10;;;;;;;;;;5081791;28;20623;-62
2022/02/08 11:13:05;;;;;;;15.30;3.10;;;;;;;;;;5082785;28;20048;-62
2022/02/08 11:18:44;;;;;;;23.27;2.70;;;;;;;;;;5056179;28;20076;-62
2022/02/08 11:26:33;;;;;;;12.23;2.78;;;;;;;;;;5064739;28;20186;-62
2022/02/08 11:29:16;;;;;;;9.45;2.33;;;;;;;;;;5065250;28;20049;-61
2022/02/08 11:31:49;;;;;;;17.40;3.30;;;;;;;;;;5052976;28;20088;-62
2022/02/08 11:40:36;;;;;;;10.93;2.15;;;;;;;;;;5059900;28;20055;-62
2022/02/08 11:45:57;;;;;;;16.10;2.70;;;;;;;;;;5064813;28;20076;-62
2022/02/08 11:51:20;;;;;;;14.15;2.92;;;;;;;;;;5044746;28;20049;-64
2022/02/08 11:54:06;;;;;;;13.90;2.75;;;;;;;;;;5053314;28;20053;-63
2022/02/08 11:59:45;;;;;;;15.77;3.20;;;;;;;;;;5061573;28;20825;-63
2022/02/08 12:04:52;;;;;;;19.80;2.87;;;;;;;;;;5044877;28;20049;-64
2022/02/08 12:07:19;;;;;;;17.65;3.22;;;;;;;;;;5035799;28;20084;-63
2022/02/08 12:31:36;;;;;;;12.85;2.55;;;;;;;;;;5043433;28;20476;-63
2022/02/08 12:34:42;;;;;;;16.27;3.25;;;;;;;;;;5044200;28;20056;-63
2022/02/08 12:59:00;;;;;;;18.92;3.95;;;;;;;;;;5086238;28;20055;-63
2022/02/08 13:02:01;;;;;;;13.00;2.88;;;;;;;;;;5079398;28;20048;-63
2022/02/08 14:02:03;;;;;;;14.88;3.33;;;;;;;;;;5066215;28;20052;-63
2022/02/08 14:05:28;;;;;;;12.70;2.33;;;;;;;;;;5077308;28;20041;-63
2022/02/08 14:07:29;;;;;;;13.82;2.75;;;;;;;;;;5082453;28;20085;-63
2022/02/08 14:10:26;;;;;;;14.45;2.53;;;;;;;;;;5084741;28;20045;-63
2022/02/08 14:18:05;;;;;;;20.70;3.45;;;;;;;;;;5086989;28;20049;-62
2022/02/08 14:23:55;;;;;;;24.23;2.90;;;;;;;;;;5082757;28;20044;-62
2022/02/08 14:34:10;;;;;;;12.00;2.47;;;;;;;;;;5083493;28;20270;-63
2022/02/08 14:59:55;;;;;;;11.80;2.67;;;;;;;;;;5081198;28;20090;-63
2022/02/08 15:09:29;;;;;;;12.35;2.75;;;;;;;;;;5083648;28;20104;-63
2022/02/08 15:12:06;;;;;;;23.25;3.63;;;;;;;;;;5083967;28;20503;-63
2022/02/08 15:14:38;;;;;;;20.03;3.30;;;;;;;;;;5085738;28;20047;-63
2022/02/08 15:17:05;;;;;;;14.35;2.70;;;;;;;;;;5079934;28;20139;-63
2022/02/08 15:19:31;;;;;;;15.98;2.72;;;;;;;;;;5104338;28;20047;-63
2022/02/08 15:21:59;;;;;;;13.43;2.65;;;;;;;;;;5069968;28;20048;-63
2022/02/08 15:24:25;;;;;;;25.38;4.03;;;;;;;;;;5077893;28;20043;-63
2022/02/08 15:26:53;;;;;;;26.05;4.07;;;;;;;;;;5103644;28;20048;-63
2022/02/08 15:29:20;;;;;;;21.70;3.45;;;;;;;;;;5104028;28;20514;-63
2022/02/08 15:31:46;;;;;;;9.82;2.88;;;;;;;;;;5103327;28;20051;-63
2022/02/08 15:34:12;;;;;;;14.40;2.70;;;;;;;;;;5104363;28;20135;-63
2022/02/08 15:36:38;;;;;;;15.90;2.85;;;;;;;;;;5092577;28;20403;-63
2022/02/08 15:39:09;;;;;;;23.38;3.92;;;;;;;;;;5075467;28;20064;-63
2022/02/08 15:41:39;;;;;;;16.70;2.72;;;;;;;;;;5084005;28;20057;-63
2022/02/08 15:44:06;;;;;;;23.73;4.68;;;;;;;;;;5086293;28;20091;-64
2022/02/08 15:46:34;;;;;;;17.08;2.97;;;;;;;;;;5103635;28;20075;-65
2022/02/08 15:49:01;;;;;;;20.33;4.90;;;;;;;;;;5095514;28;20048;-62
2022/02/08 15:51:39;;;;;;;11.20;3.08;;;;;;;;;;5090825;28;20115;-64
2022/02/08 16:07:37;;;;;;;15.18;2.92;;;;;;;;;;5104910;28;20412;-66
2022/02/08 16:10:10;;;;;;;;;;;;;;;;;;5099837;28;20044;-65
2022/02/08 16:13:09;;;;;;;24.60;3.35;;;;;;;;;;5087780;28;19920;-65
2022/02/08 16:15:54;;;;;;;16.33;3.83;;;;;;;;;;5086339;28;20052;-65
2022/02/08 16:18:32;;;;;;;19.25;3.20;;;;;;;;;;5086976;28;20109;-65
2022/02/08 16:26:03;;;;;;;13.43;2.53;;;;;;;;;;5086618;28;20048;-65
2022/02/08 16:28:51;;;;;;;16.35;3.25;;;;;;;;;;5087134;28;20169;-65
2022/02/08 16:53:09;;;;;;;15.98;3.85;;;;;;;;;;5085418;28;20036;-64
2022/02/08 16:58:44;;;;;;;15.02;3.40;;;;;;;;;;5086520;28;20103;-65
2022/02/08 17:01:14;;;;;;;15.07;3.42;;;;;;;;;;5065809;28;20041;-64
2022/02/08 17:03:46;;;;;;;10.95;3.55;;;;;;;;;;5074678;28;20048;-65
2022/02/08 17:06:16;;;;;;;12.65;2.28;;;;;;;;;;5085952;28;20052;-65
2022/02/08 17:08:43;;;;;;;24.15;3.67;;;;;;;;;;5086118;28;20420;-64
2022/02/08 17:11:09;;;;;;;20.60;4.05;;;;;;;;;;5086039;28;20104;-64
2022/02/08 17:16:15;;;;;;;23.98;3.60;;;;;;;;;;5093209;28;20087;-64
2022/02/08 17:46:34;;;;;;;28.08;4.82;;;;;;;;;;5061622;28;20462;-64
2022/02/08 17:49:01;;;;;;;30.08;6.28;;;;;;;;;;5060826;28;20550;-64
2022/02/08 17:51:28;;;;;;;17.80;3.67;;;;;;;;;;5061492;28;20305;-64
2022/02/08 17:53:54;;;;;;;28.13;6.28;;;;;;;;;;5070905;28;20044;-64
2022/02/08 17:56:20;;;;;;;18.77;4.32;;;;;;;;;;5076405;28;20128;-65
2022/02/08 17:58:49;;;;;;;20.40;4.43;;;;;;;;;;5065926;28;20044;-64
2022/02/08 18:01:15;;;;;;;22.50;4.10;;;;;;;;;;5070598;28;20051;-66
2022/02/08 18:03:41;;;;;;;21.30;3.75;;;;;;;;;;5084626;28;20059;-65
2022/02/08 18:06:07;;;;;;;26.20;3.88;;;;;;;;;;5096545;28;20096;-65
2022/02/08 18:08:35;;;;;;;22.08;3.53;;;;;;;;;;5079186;28;20044;-66
2022/02/08 18:11:01;;;;;;;28.25;4.90;;;;;;;;;;5092151;28;20074;-70
2022/02/08 18:13:30;;;;;;;15.52;4.25;;;;;;;;;;5085714;28;20100;-68
2022/02/08 18:15:58;;;;;;;16.25;3.00;;;;;;;;;;5084974;28;20037;-67
2022/02/08 18:18:30;;;;;;;26.77;4.78;;;;;;;;;;5092999;28;20070;-69
2022/02/08 18:21:00;;;;;;;19.67;4.00;;;;;;;;;;5090601;28;20040;-68
2022/02/08 18:50:11;;;;;;;28.50;4.40;;;;;;;;;;5102132;28;20066;-68
2022/02/08 19:07:32;;;;;;;17.92;2.92;;;;;;;;;;5066536;28;20058;-70
2022/02/08 19:12:53;;;;;;;18.63;2.75;;;;;;;;;;5076332;28;20048;-67
2022/02/08 19:15:43;;;;;;;12.98;3.17;;;;;;;;;;5078043;28;20040;-72
2022/02/08 19:21:06;;;;;;;14.85;3.92;;;;;;;;;;5067869;28;20132;-69
2022/02/08 19:23:31;;;;;;;18.38;4.15;;;;;;;;;;5104532;28;20159;-67
2022/02/08 19:25:58;;;;;;;17.93;3.53;;;;;;;;;;5079030;28;20123;-69
2022/02/08 19:28:24;;;;;;;21.48;4.63;;;;;;;;;;5104752;28;20315;-74
2022/02/08 19:30:52;;;;;;;24.60;4.13;;;;;;;;;;5071006;28;20203;-72
2022/02/08 19:33:21;;;;;;;13.23;2.88;;;;;;;;;;5070893;28;20071;-72
2022/02/08 19:35:48;;;;;;;20.65;3.88;;;;;;;;;;5078674;28;20441;-73
2022/02/08 19:38:17;;;;;;;15.77;3.75;;;;;;;;;;5065811;28;20140;-75
2022/02/08 19:40:43;;;;;;;22.88;4.72;;;;;;;;;;5068398;28;20075;-72
2022/02/08 19:43:09;;;;;;;28.25;5.10;;;;;;;;;;5075612;28;20048;-73
2022/02/08 19:45:42;;;;;;;20.75;4.63;;;;;;;;;;5066590;28;20037;-68
2022/02/08 19:48:08;;;;;;;18.05;4.28;;;;;;;;;;5088622;28;20041;-70
2022/02/08 19:50:36;;;;;;;21.98;5.85;;;;;;;;;;5101439;28;20114;-72
2022/02/08 19:53:06;;;;;;;25.30;5.05;;;;;;;;;;5086941;28;20055;-72
2022/02/08 19:58:11;;;;;;;23.90;4.40;;;;;;;;;;5093428;28;20055;-70
2022/02/08 20:00:41;;;;;;;24.42;4.85;;;;;;;;;;5088474;28;20519;-69
2022/02/08 20:03:09;;;;;;;23.95;5.47;;;;;;;;;;5085681;28;20123;-66
2022/02/08 20:05:36;;;;;;;26.55;5.65;;;;;;;;;;5093714;28;20048;-65
2022/02/08 20:08:03;;;;;;;23.27;4.45;;;;;;;;;;5101488;28;20036;-66
2022/02/08 20:10:30;;;;;;;28.70;5.82;;;;;;;;;;5099712;28;20063;-66
2022/02/08 20:12:56;;;;;;;20.45;5.75;;;;;;;;;;5097695;28;20588;-65
2022/02/08 20:15:23;;;;;;;18.33;4.90;;;;;;;;;;5093817;28;20680;-65
2022/02/08 20:17:51;;;;;;;24.95;5.75;;;;;;;;;;5083716;28;20122;-66
2022/02/08 20:20:18;;;;;;;25.15;4.75;;;;;;;;;;5094445;28;20048;-66
2022/02/08 20:22:49;;;;;;;28.02;6.45;;;;;;;;;;5097573;28;20525;-66
2022/02/08 20:25:18;;;;;;;21.23;5.45;;;;;;;;;;5088026;28;20063;-65
2022/02/08 20:27:49;;;;;;;23.83;5.15;;;;;;;;;;5085054;28;20086;-66
2022/02/08 20:30:20;;;;;;;15.02;5.05;;;;;;;;;;5089079;28;20044;-65
2022/02/08 20:32:46;;;;;;;24.38;6.28;;;;;;;;;;5086623;28;20055;-66
2022/02/08 20:35:13;;;;;;;19.50;4.53;;;;;;;;;;5086457;28;20048;-65
2022/02/08 20:37:41;;;;;;;22.67;4.68;;;;;;;;;;5092332;28;20044;-65
2022/02/08 20:40:08;;;;;;;21.85;4.85;;;;;;;;;;5086412;28;20044;-65
2022/02/08 20:42:35;;;;;;;28.73;5.88;;;;;;;;;;5086158;28;20052;-65
2022/02/08 20:45:01;;;;;;;11.15;4.47;;;;;;;;;;5085031;28;20036;-65
2022/02/08 20:47:27;;;;;;;24.73;5.32;;;;;;;;;;5086180;28;20048;-66
2022/02/08 20:50:08;;;;;;;18.35;4.60;;;;;;;;;;5100862;28;20051;-65
2022/02/08 20:52:39;;;;;;;14.38;4.57;;;;;;;;;;5088718;28;20051;-66
2022/02/08 20:55:09;;;;;;;16.52;4.35;;;;;;;;;;5081985;28;20048;-66
2022/02/08 20:57:37;;;;;;;20.75;4.85;;;;;;;;;;5096054;28;20084;-66
2022/02/08 21:00:11;;;;;;;16.52;4.53;;;;;;;;;;5102510;28;20048;-66
2022/02/08 21:02:40;;;;;;;26.23;5.57;;;;;;;;;;5096595;28;20100;-65
2022/02/08 21:07:51;;;;;;;18.70;5.25;;;;;;;;;;5069003;28;20045;-65
2022/02/08 21:10:18;;;;;;;25.50;4.35;;;;;;;;;;5070269;28;20064;-66
2022/02/08 21:13:15;;;;;;;20.95;4.30;;;;;;;;;;5095656;28;20052;-66
2022/02/08 21:15:42;;;;;;;22.60;4.38;;;;;;;;;;5093215;28;20040;-66
2022/02/08 21:18:08;;;;;;;18.92;4.60;;;;;;;;;;5086997;28;20052;-66
2022/02/08 21:20:35;;;;;;;17.92;4.95;;;;;;;;;;5083718;28;20045;-66
2022/02/08 21:23:01;;;;;;;19.52;4.30;;;;;;;;;;5079272;28;20112;-66
2022/02/08 21:25:33;;;;;;;14.65;4.13;;;;;;;;;;5096408;28;20542;-65
2022/02/08 21:28:02;;;;;;;16.42;3.53;;;;;;;;;;5097820;28;20048;-65
2022/02/08 21:31:07;;;;;;;23.05;5.05;;;;;;;;;;5085579;28;20036;-66
2022/02/08 21:47:28;;;;;;;9.95;3.60;;;;;;;;;;5086790;28;20051;-65
2022/02/08 21:49:49;;;;;;;17.38;3.22;;;;;;;;;;5081133;28;20506;-65
2022/02/08 21:54:52;;;;;;;16.77;3.97;;;;;;;;;;5094020;28;20043;-66
2022/02/08 21:57:21;;;;;;;27.93;4.63;;;;;;;;;;5088423;28;20052;-66
2022/02/08 21:59:47;;;;;;;19.13;4.13;;;;;;;;;;5075273;28;20043;-66
2022/02/08 22:02:13;;;;;;;19.65;4.40;;;;;;;;;;5090038;28;20080;-66
2022/02/08 22:04:40;;;;;;;13.98;4.40;;;;;;;;;;5080316;28;20070;-66
2022/02/08 22:07:12;;;;;;;8.45;3.40;;;;;;;;;;5077269;28;20052;-67
2022/02/08 22:09:40;;;;;;;15.52;4.20;;;;;;;;;;5085000;28;20409;-66
2022/02/08 22:22:51;;;;;;;14.27;5.00;;;;;;;;;;5081118;28;20443;-66
2022/02/08 22:25:37;;;;;;;18.75;4.78;;;;;;;;;;5084174;28;20044;-66
2022/02/08 22:33:08;;;;;;;17.42;4.97;;;;;;;;;;5083688;28;20097;-67
2022/02/08 22:35:44;;;;;;;12.77;5.18;;;;;;;;;;5088255;28;20403;-66
2022/02/08 22:38:20;;;;;;;20.23;5.63;;;;;;;;;;5086213;28;20052;-65
2022/02/08 22:40:53;;;;;;;15.82;5.55;;;;;;;;;;5078423;28;20055;-66
2022/02/08 22:43:23;;;;;;;12.50;5.20;;;;;;;;;;5114943;27;20056;-66
2022/02/08 22:45:49;;;;;;;22.40;5.78;;;;;;;;;;5079006;28;20050;-66
2022/02/08 22:48:16;;;;;;;13.52;5.70;;;;;;;;;;5078574;28;20086;-65
2022/02/08 22:50:42;;;;;;;17.77;5.43;;;;;;;;;;5083924;28;20059;-65